Time;durP1;ratioP1;P1;durP2;ratioP2;P2;SDS_P1;SDS_P2;PMS_P1;PMS_P2;Temp;Humidity;BMP_temperature;BMP_pressure;BME280_temperature;BME280_humidity;BME280_pressure;Samples;Min_cycle;Max_cycle;Signal;HPM_P1;HPM_P2
2023/08/17 00:01:00;;;;;;;1.55;1.05;;;;;;;25.77;45.77;102174.84;5086854;28;20119;-69
2023/08/17 00:03:26;;;;;;;0.77;0.77;;;;;;;25.85;45.43;102172.63;5088962;28;20116;-69
2023/08/17 00:05:51;;;;;;;2.10;0.80;;;;;;;25.82;45.46;102167.44;5086776;28;20031;-69
2023/08/17 00:08:17;;;;;;;0.95;0.70;;;;;;;25.46;46.44;102173.81;5083474;28;20110;-69
2023/08/17 00:10:42;;;;;;;1.80;1.05;;;;;;;25.18;46.76;102177.88;5086021;28;20483;-69
2023/08/17 00:13:08;;;;;;;1.02;0.85;;;;;;;24.51;47.77;102182.88;5089257;28;20440;-69
2023/08/17 00:15:33;;;;;;;2.92;1.13;;;;;;;25.59;46.20;102182.03;5087775;28;20543;-69
2023/08/17 00:17:59;;;;;;;1.33;1.20;;;;;;;25.35;46.21;102173.50;5086272;28;20023;-69
2023/08/17 00:20:24;;;;;;;2.83;0.98;;;;;;;25.36;46.24;102180.56;5087317;28;20118;-69
2023/08/17 00:22:49;;;;;;;2.50;1.00;;;;;;;25.72;45.79;102176.94;5086660;28;20418;-69
2023/08/17 00:25:15;;;;;;;2.40;0.90;;;;;;;26.00;44.80;102176.28;5087352;28;20123;-69
2023/08/17 00:27:40;;;;;;;2.13;0.98;;;;;;;25.22;46.48;102174.09;5087145;28;20031;-69
2023/08/17 00:30:06;;;;;;;4.05;1.00;;;;;;;26.07;44.91;102177.72;5087969;28;20438;-69
2023/08/17 00:32:31;;;;;;;0.80;0.80;;;;;;;25.13;46.79;102182.59;5086129;28;20062;-69
2023/08/17 00:34:57;;;;;;;2.40;1.05;;;;;;;25.54;46.19;102184.97;5086410;28;20110;-70
2023/08/17 00:37:22;;;;;;;1.45;1.00;;;;;;;25.91;45.25;102183.03;5087782;28;20502;-69
2023/08/17 00:39:48;;;;;;;1.40;0.80;;;;;;;25.34;46.41;102190.50;5086735;28;20144;-70
2023/08/17 00:42:13;;;;;;;3.63;0.90;;;;;;;25.33;46.53;102191.44;5086493;28;20028;-69
2023/08/17 00:44:38;;;;;;;1.13;0.70;;;;;;;24.62;47.83;102189.53;5088995;28;20489;-69
2023/08/17 00:47:04;;;;;;;2.70;0.80;;;;;;;25.36;46.33;102177.88;5087562;28;20511;-69
2023/08/17 00:49:30;;;;;;;2.13;0.73;;;;;;;25.81;46.04;102171.06;5086261;28;20487;-69
2023/08/17 00:51:56;;;;;;;2.08;0.90;;;;;;;25.20;47.31;102177.78;5087132;28;21660;-69
2023/08/17 00:54:25;;;;;;;4.85;1.17;;;;;;;26.03;45.73;102169.94;5087284;28;20043;-69
2023/08/17 00:56:52;;;;;;;1.25;0.98;;;;;;;25.36;46.89;102164.50;5087690;28;20032;-69
2023/08/17 00:59:17;;;;;;;3.90;1.05;;;;;;;25.01;47.88;102159.13;5072787;28;20511;-69
2023/08/17 01:01:43;;;;;;;2.28;1.30;;;;;;;25.20;47.43;102169.75;5040044;28;20028;-68
2023/08/17 01:04:08;;;;;;;2.58;0.90;;;;;;;24.33;49.09;102167.72;5051050;28;20025;-69
2023/08/17 01:06:37;;;;;;;4.90;1.08;;;;;;;24.51;48.64;102174.88;5061876;28;20025;-69
2023/08/17 01:09:03;;;;;;;1.98;1.15;;;;;;;24.63;48.30;102175.25;5048596;28;20033;-69
2023/08/17 01:11:29;;;;;;;3.60;1.00;;;;;;;25.88;46.08;102169.81;5049650;28;20090;-69
2023/08/17 01:14:01;;;;;;;1.45;1.20;;;;;;;24.50;48.46;102180.28;5071191;28;20838;-69
2023/08/17 01:16:32;;;;;;;1.00;0.90;;;;;;;24.71;48.68;102183.75;5053612;28;20032;-69
2023/08/17 01:19:00;;;;;;;0.90;0.90;;;;;;;25.03;47.48;102179.50;5053772;28;20038;-69
2023/08/17 01:21:35;;;;;;;3.10;1.30;;;;;;;24.83;47.97;102176.97;5053105;28;20043;-69
2023/08/17 01:24:03;;;;;;;2.75;1.00;;;;;;;24.55;48.46;102183.59;5071964;28;20166;-69
2023/08/17 01:26:29;;;;;;;1.23;0.80;;;;;;;25.59;46.34;102170.47;5070603;28;20029;-69
2023/08/17 01:28:54;;;;;;;0.90;0.75;;;;;;;24.94;47.51;102173.75;5059684;28;20530;-70
2023/08/17 01:31:31;;;;;;;1.35;0.75;;;;;;;24.41;48.76;102176.22;5071644;28;20107;-70
2023/08/17 01:34:00;;;;;;;4.05;1.25;;;;;;;24.02;49.50;102174.50;5070449;28;20137;-69
2023/08/17 01:36:29;;;;;;;4.05;1.10;;;;;;;24.72;47.90;102174.81;5070891;28;20063;-70
2023/08/17 01:38:56;;;;;;;1.00;0.80;;;;;;;24.99;47.66;102177.03;5053095;28;20029;-69
2023/08/17 01:41:23;;;;;;;2.13;1.08;;;;;;;24.16;49.23;102174.72;5053326;28;20021;-69
2023/08/17 01:43:49;;;;;;;1.70;0.70;;;;;;;25.26;47.39;102173.94;5051885;28;20036;-69
2023/08/17 01:46:16;;;;;;;0.80;0.80;;;;;;;25.31;47.05;102167.41;5053562;28;20036;-69
2023/08/17 01:48:42;;;;;;;3.45;1.05;;;;;;;24.94;47.50;102166.59;5052671;28;20036;-69
2023/08/17 01:51:09;;;;;;;3.17;1.17;;;;;;;25.09;47.69;102167.63;5053539;28;20115;-69
2023/08/17 01:53:35;;;;;;;1.35;1.08;;;;;;;24.39;48.92;102162.09;5052277;28;20044;-69
2023/08/17 01:56:01;;;;;;;1.17;0.80;;;;;;;24.83;48.42;102160.91;5053037;28;20043;-70
2023/08/17 01:58:26;;;;;;;2.72;0.93;;;;;;;25.28;46.67;102161.31;5069158;28;20389;-70
2023/08/17 02:00:51;;;;;;;2.08;1.73;;;;;;;24.51;49.29;102160.63;5053331;28;20113;-70
2023/08/17 02:03:17;;;;;;;4.38;1.20;;;;;;;23.67;50.53;102158.22;5053154;28;20127;-69
2023/08/17 02:05:46;;;;;;;1.90;1.00;;;;;;;23.81;50.30;102165.59;5070269;28;20400;-70
2023/08/17 02:08:12;;;;;;;1.02;0.90;;;;;;;24.41;49.32;102164.69;5048487;28;20086;-70
2023/08/17 02:10:37;;;;;;;2.95;0.85;;;;;;;24.35;49.05;102165.84;5071346;28;20103;-70
2023/08/17 02:13:03;;;;;;;1.90;1.00;;;;;;;24.28;49.36;102164.41;5052137;28;20511;-69
2023/08/17 02:15:29;;;;;;;4.20;1.10;;;;;;;24.53;49.23;102167.63;5053704;28;20055;-69
2023/08/17 02:17:54;;;;;;;4.38;1.17;;;;;;;24.92;48.43;102159.56;5052270;28;20779;-69
2023/08/17 02:20:20;;;;;;;1.00;0.93;;;;;;;24.75;48.47;102163.09;5052061;28;20511;-69
2023/08/17 02:22:45;;;;;;;5.22;1.10;;;;;;;24.53;49.02;102164.97;5052672;28;20111;-70
2023/08/17 02:25:10;;;;;;;3.80;1.15;;;;;;;24.25;49.88;102162.75;5051100;28;20435;-69
2023/08/17 02:27:36;;;;;;;1.55;1.20;;;;;;;23.75;51.01;102156.06;5051423;28;20055;-69
2023/08/17 02:30:03;;;;;;;3.08;1.30;;;;;;;23.93;50.61;102166.91;5068081;28;20381;-69
2023/08/17 02:32:28;;;;;;;2.80;1.20;;;;;;;24.04;50.19;102154.81;5052611;28;20032;-70
2023/08/17 02:34:54;;;;;;;3.55;1.50;;;;;;;23.71;51.38;102158.03;5052375;28;20499;-69
2023/08/17 02:37:19;;;;;;;1.08;0.98;;;;;;;23.81;51.65;102158.47;5053176;28;20026;-69
2023/08/17 02:39:45;;;;;;;2.47;1.00;;;;;;;24.11;50.86;102147.38;5043287;28;20405;-70
2023/08/17 02:42:10;;;;;;;2.63;0.88;;;;;;;23.73;51.47;102149.97;5033087;28;20396;-70
2023/08/17 02:44:36;;;;;;;3.15;1.05;;;;;;;23.88;51.04;102143.94;5056322;28;20131;-68
2023/08/17 02:47:01;;;;;;;1.70;0.80;;;;;;;24.50;49.77;102145.56;5051425;28;20040;-69
2023/08/17 02:49:26;;;;;;;1.80;1.10;;;;;;;24.60;49.03;102148.63;5046636;28;20037;-68
2023/08/17 02:51:52;;;;;;;1.10;0.90;;;;;;;24.88;48.44;102142.81;5049943;28;20054;-68
2023/08/17 02:54:17;;;;;;;2.78;1.23;;;;;;;24.36;49.53;102151.56;5051140;28;20028;-69
2023/08/17 02:56:43;;;;;;;1.58;1.30;;;;;;;23.55;51.71;102143.63;5048617;28;20477;-70
2023/08/17 02:59:08;;;;;;;1.48;1.00;;;;;;;24.63;49.20;102143.16;5071519;28;20051;-70
2023/08/17 03:01:33;;;;;;;4.80;1.40;;;;;;;25.03;48.18;102135.81;5088825;28;20055;-69
2023/08/17 03:03:59;;;;;;;2.17;0.85;;;;;;;24.54;49.14;102139.97;5088735;28;20506;-69
2023/08/17 03:06:24;;;;;;;1.48;0.90;;;;;;;24.32;49.33;102144.63;5089685;28;20468;-70
2023/08/17 03:08:52;;;;;;;1.48;0.98;;;;;;;24.02;50.62;102151.31;5090046;28;20423;-70
2023/08/17 03:11:17;;;;;;;1.05;0.93;;;;;;;23.55;51.58;102141.81;5088114;28;20032;-70
2023/08/17 03:13:43;;;;;;;3.30;1.08;;;;;;;24.50;48.87;102149.06;5088785;28;20059;-70
2023/08/17 03:16:08;;;;;;;4.03;1.50;;;;;;;24.10;51.01;102150.09;5088425;28;20032;-69
2023/08/17 03:18:34;;;;;;;3.40;1.38;;;;;;;24.33;49.67;102146.34;5088779;28;20027;-70
2023/08/17 03:20:59;;;;;;;1.83;1.30;;;;;;;24.20;50.51;102146.91;5088834;28;20032;-69
2023/08/17 03:23:24;;;;;;;3.05;1.20;;;;;;;24.17;50.20;102147.06;5089944;28;20024;-69
2023/08/17 03:25:54;;;;;;;4.60;1.25;;;;;;;24.12;50.71;102149.09;5086393;28;20036;-69
2023/08/17 03:28:19;;;;;;;4.30;1.20;;;;;;;23.63;51.83;102141.50;5070075;28;20024;-70
2023/08/17 03:30:45;;;;;;;3.22;1.20;;;;;;;24.96;48.69;102139.75;5069628;28;20388;-69
2023/08/17 03:33:10;;;;;;;1.98;1.48;;;;;;;23.87;51.19;102143.97;5084264;28;20035;-69
2023/08/17 03:35:35;;;;;;;3.10;1.50;;;;;;;23.91;51.10;102142.94;5086668;28;20028;-69
2023/08/17 03:38:01;;;;;;;7.13;1.58;;;;;;;23.92;51.06;102141.13;5090858;28;20274;-69
2023/08/17 03:40:26;;;;;;;4.68;1.40;;;;;;;23.92;51.61;102141.13;5088489;28;20119;-70
2023/08/17 03:42:52;;;;;;;2.90;1.23;;;;;;;24.10;50.74;102129.59;5087156;28;20028;-70
2023/08/17 03:45:18;;;;;;;2.42;1.35;;;;;;;23.42;52.97;102132.63;5088971;28;20028;-70
2023/08/17 03:47:43;;;;;;;1.83;1.20;;;;;;;23.62;51.56;102130.91;5088375;28;20061;-70
2023/08/17 03:50:10;;;;;;;2.05;1.40;;;;;;;23.74;52.49;102135.69;5088455;28;20032;-69
2023/08/17 03:52:35;;;;;;;3.92;0.93;;;;;;;23.75;52.26;102136.53;5088011;28;20522;-70
2023/08/17 03:55:01;;;;;;;1.30;1.20;;;;;;;23.95;51.53;102135.66;5085942;28;20016;-70
2023/08/17 03:57:26;;;;;;;2.55;1.30;;;;;;;23.05;53.31;102128.84;5086035;28;20055;-70
2023/08/17 03:59:52;;;;;;;4.63;1.15;;;;;;;23.86;52.07;102136.91;5051507;28;20033;-69
2023/08/17 04:02:17;;;;;;;3.10;1.25;;;;;;;23.77;51.54;102140.88;5051259;28;20028;-70
2023/08/17 04:04:43;;;;;;;5.35;1.25;;;;;;;23.94;51.50;102131.25;5049311;28;20438;-70
2023/08/17 04:07:08;;;;;;;5.53;1.38;;;;;;;23.65;51.94;102128.09;5044913;28;20078;-71
2023/08/17 04:09:34;;;;;;;5.03;1.02;;;;;;;23.85;51.67;102130.72;5068086;28;20032;-70
2023/08/17 04:12:00;;;;;;;3.25;1.20;;;;;;;23.91;51.09;102129.59;5042259;28;20032;-70
2023/08/17 04:14:26;;;;;;;2.00;0.90;;;;;;;24.02;51.28;102126.44;5031824;28;20431;-70
2023/08/17 04:16:52;;;;;;;2.20;0.95;;;;;;;24.21;50.89;102137.13;5043684;28;20230;-71
2023/08/17 04:19:17;;;;;;;0.70;0.70;;;;;;;24.43;50.91;102128.94;5051034;28;20031;-70
2023/08/17 04:21:42;;;;;;;7.05;1.10;;;;;;;23.61;53.10;102131.81;5051212;28;20090;-70
2023/08/17 04:24:08;;;;;;;3.83;1.13;;;;;;;23.55;52.36;102128.47;5051641;28;20137;-70
2023/08/17 04:26:33;;;;;;;2.95;1.10;;;;;;;23.74;51.71;102133.00;5032726;28;20125;-70
2023/08/17 04:28:58;;;;;;;1.08;1.00;;;;;;;23.62;53.12;102139.75;5031410;28;20317;-70
2023/08/17 04:31:24;;;;;;;4.38;1.80;;;;;;;23.90;51.73;102138.53;5048845;28;20446;-70
2023/08/17 04:33:50;;;;;;;1.65;1.13;;;;;;;23.73;52.20;102149.97;5068749;28;20419;-71
2023/08/17 04:36:15;;;;;;;1.80;0.80;;;;;;;24.13;51.02;102148.16;5049535;28;20025;-71
2023/08/17 04:38:40;;;;;;;4.43;1.00;;;;;;;23.78;52.93;102150.63;5050399;28;20033;-70
2023/08/17 04:41:06;;;;;;;0.80;0.80;;;;;;;24.52;49.73;102147.22;5035899;28;20086;-70
2023/08/17 04:43:31;;;;;;;4.38;0.93;;;;;;;23.90;51.05;102143.03;5047911;28;20090;-71
2023/08/17 04:45:57;;;;;;;3.95;1.00;;;;;;;23.71;52.01;102143.81;5043339;28;20027;-70
2023/08/17 04:48:22;;;;;;;0.95;0.90;;;;;;;23.68;52.13;102147.47;5072060;28;20107;-70
2023/08/17 04:50:48;;;;;;;2.05;0.90;;;;;;;24.35;50.71;102148.00;5046744;28;20025;-70
2023/08/17 04:53:13;;;;;;;1.60;0.90;;;;;;;23.07;53.89;102152.75;5068512;28;20365;-71
2023/08/17 04:55:39;;;;;;;8.50;1.20;;;;;;;23.39;53.98;102138.09;5070007;28;20033;-71
2023/08/17 04:58:04;;;;;;;6.45;1.52;;;;;;;23.93;52.44;102145.53;5052992;28;20045;-70
2023/08/17 05:00:30;;;;;;;3.42;0.90;;;;;;;23.57;53.50;102132.91;5063668;28;20028;-70
2023/08/17 05:02:56;;;;;;;1.33;0.70;;;;;;;23.90;52.26;102132.34;5054563;28;20028;-71
2023/08/17 05:05:22;;;;;;;2.80;1.40;;;;;;;23.94;51.39;102128.59;5072799;28;20082;-70
2023/08/17 05:07:47;;;;;;;2.13;0.80;;;;;;;22.89;54.93;102123.31;5053516;28;20524;-70
2023/08/17 05:10:13;;;;;;;3.03;1.00;;;;;;;24.10;51.79;102116.25;5072250;28;20028;-71
2023/08/17 05:12:39;;;;;;;3.13;1.30;;;;;;;23.49;52.72;102112.75;5072156;28;20066;-71
2023/08/17 05:15:04;;;;;;;4.05;0.90;;;;;;;24.01;51.45;102122.03;5053481;28;20024;-70
2023/08/17 05:17:30;;;;;;;4.60;1.30;;;;;;;24.16;51.13;102113.28;5072192;28;20066;-70
2023/08/17 05:19:55;;;;;;;3.40;0.70;;;;;;;24.04;51.29;102117.41;5071376;28;20032;-70
2023/08/17 05:22:21;;;;;;;3.08;1.00;;;;;;;23.57;52.46;102116.88;5053658;28;20032;-70
2023/08/17 05:24:47;;;;;;;2.35;0.65;;;;;;;23.58;51.74;102121.28;5054343;28;20073;-70
2023/08/17 05:27:12;;;;;;;1.92;1.35;;;;;;;23.16;53.38;102131.09;5053933;28;20029;-69
2023/08/17 05:29:38;;;;;;;0.82;0.70;;;;;;;24.37;51.02;102139.91;5052153;28;20480;-70
2023/08/17 05:32:03;;;;;;;1.58;0.80;;;;;;;24.83;48.83;102129.69;5052656;28;20533;-69
2023/08/17 05:34:29;;;;;;;3.30;0.90;;;;;;;23.87;51.54;102139.50;5054217;28;20024;-70
2023/08/17 05:36:54;;;;;;;1.75;0.75;;;;;;;23.96;51.67;102140.06;5052262;28;20047;-70
2023/08/17 05:39:20;;;;;;;1.10;0.85;;;;;;;24.55;50.15;102146.16;5053755;28;20119;-70
2023/08/17 05:41:45;;;;;;;0.80;0.68;;;;;;;23.98;50.83;102143.53;5052560;28;20039;-70
2023/08/17 05:44:10;;;;;;;1.42;0.93;;;;;;;24.60;49.68;102145.97;5053070;28;20043;-70
2023/08/17 05:46:36;;;;;;;2.72;0.90;;;;;;;24.26;50.90;102147.56;5053178;28;20435;-71
2023/08/17 05:49:02;;;;;;;5.50;1.20;;;;;;;24.40;50.88;102134.44;5052591;28;20036;-70
2023/08/17 05:51:28;;;;;;;2.15;0.90;;;;;;;24.24;50.60;102136.97;5051154;28;20040;-70
2023/08/17 05:53:53;;;;;;;2.72;0.95;;;;;;;23.95;51.67;102133.00;5043673;28;20044;-69
2023/08/17 05:56:19;;;;;;;2.08;0.77;;;;;;;24.39;50.26;102135.38;5053438;28;20024;-70
2023/08/17 05:58:44;;;;;;;3.42;0.95;;;;;;;23.69;52.35;102135.88;5070031;28;20062;-69
2023/08/17 06:01:11;;;;;;;1.48;0.80;;;;;;;23.33;53.31;102141.03;5053314;28;20037;-70
2023/08/17 06:03:37;;;;;;;1.55;1.00;;;;;;;24.17;52.27;102148.88;5050780;28;20071;-69
2023/08/17 06:06:05;;;;;;;2.65;0.82;;;;;;;24.95;49.71;102146.06;5053167;28;20028;-70
2023/08/17 06:08:31;;;;;;;6.22;1.15;;;;;;;24.35;50.68;102150.69;5052463;28;20551;-70
2023/08/17 06:10:56;;;;;;;1.08;0.80;;;;;;;24.77;49.87;102146.03;5052611;28;20035;-70
2023/08/17 06:13:22;;;;;;;3.63;1.10;;;;;;;24.63;49.97;102151.19;5052420;28;20033;-70
2023/08/17 06:15:47;;;;;;;1.27;0.90;;;;;;;24.61;50.53;102150.38;5071420;28;20039;-70
2023/08/17 06:18:13;;;;;;;2.60;0.93;;;;;;;25.05;49.54;102144.66;5051494;28;20063;-70
2023/08/17 06:20:38;;;;;;;2.28;1.20;;;;;;;24.76;49.99;102152.31;5052178;28;20033;-70
2023/08/17 06:23:04;;;;;;;4.15;1.00;;;;;;;25.53;47.89;102145.75;5052762;28;20029;-70
2023/08/17 06:25:29;;;;;;;1.60;0.93;;;;;;;25.35;48.61;102157.44;5051066;28;20036;-70
2023/08/17 06:27:55;;;;;;;8.80;1.08;;;;;;;24.75;49.42;102158.59;5052958;28;20202;-69
2023/08/17 06:30:21;;;;;;;2.95;0.70;;;;;;;24.69;49.40;102169.63;5049462;28;20032;-70
2023/08/17 06:32:46;;;;;;;5.22;1.25;;;;;;;25.56;47.86;102150.94;5050387;28;20029;-70
2023/08/17 06:35:12;;;;;;;4.55;1.55;;;;;;;25.39;48.84;102164.38;5046150;28;20032;-70
2023/08/17 06:37:37;;;;;;;1.83;0.82;;;;;;;25.40;48.20;102155.38;5059407;28;20443;-70
2023/08/17 06:40:06;;;;;;;1.73;0.70;;;;;;;26.03;46.96;102149.34;5052056;28;20048;-69
2023/08/17 06:42:32;;;;;;;2.30;0.85;;;;;;;25.14;48.61;102154.91;5070345;28;20109;-69
2023/08/17 06:44:57;;;;;;;3.25;0.95;;;;;;;26.05;47.29;102147.47;5050620;28;20060;-69
2023/08/17 06:47:23;;;;;;;2.88;0.80;;;;;;;26.27;46.53;102146.28;5052641;28;20480;-70
2023/08/17 06:49:49;;;;;;;1.13;0.93;;;;;;;25.99;47.34;102144.22;5044646;28;20029;-70
2023/08/17 06:52:14;;;;;;;3.25;1.00;;;;;;;25.79;48.15;102146.19;5051059;28;20031;-70
2023/08/17 06:54:39;;;;;;;3.35;0.93;;;;;;;25.83;47.41;102149.56;5050906;28;20387;-70
2023/08/17 06:57:05;;;;;;;1.92;1.10;;;;;;;26.28;47.07;102153.34;5049554;28;20040;-70
2023/08/17 06:59:33;;;;;;;2.58;1.40;;;;;;;26.88;45.02;102158.03;5076225;28;20666;-70
2023/08/17 07:01:58;;;;;;;2.08;1.10;;;;;;;26.98;44.90;102146.75;5089203;28;20157;-70
2023/08/17 07:04:25;;;;;;;3.47;1.00;;;;;;;26.33;45.65;102155.81;5090855;28;20051;-70
2023/08/17 07:06:51;;;;;;;1.83;1.00;;;;;;;26.49;46.16;102153.97;5086814;28;20036;-69
2023/08/17 07:09:16;;;;;;;5.88;1.08;;;;;;;26.21;45.66;102158.22;5090142;28;20035;-70
2023/08/17 07:11:42;;;;;;;3.83;1.35;;;;;;;27.25;44.38;102161.19;5087483;28;20077;-70
2023/08/17 07:14:07;;;;;;;5.50;1.08;;;;;;;27.83;43.83;102165.81;5089273;28;20027;-69
2023/08/17 07:16:33;;;;;;;2.15;0.75;;;;;;;27.52;42.72;102163.22;5095115;28;20245;-73
2023/08/17 07:18:58;;;;;;;4.53;0.80;;;;;;;29.17;39.67;102159.84;5098396;28;20557;-73
2023/08/17 07:21:24;;;;;;;1.60;1.08;;;;;;;30.39;37.87;102158.50;5096728;28;20035;-73
2023/08/17 07:23:50;;;;;;;2.22;1.10;;;;;;;31.08;36.60;102163.31;5090787;28;20563;-72
2023/08/17 07:26:18;;;;;;;2.53;0.93;;;;;;;30.10;37.52;102169.56;5094064;28;20089;-73
2023/08/17 07:28:44;;;;;;;0.90;0.90;;;;;;;30.95;36.84;102164.22;5092229;28;20597;-73
2023/08/17 07:31:10;;;;;;;5.18;0.93;;;;;;;31.70;35.56;102166.63;5092853;28;20024;-73
2023/08/17 07:33:35;;;;;;;2.45;0.90;;;;;;;32.39;34.35;102169.16;5089575;28;20024;-73
2023/08/17 07:36:01;;;;;;;1.13;0.80;;;;;;;30.55;37.61;102159.09;5076024;28;20082;-73
2023/08/17 07:38:26;;;;;;;2.17;1.30;;;;;;;30.27;37.21;102160.28;5072976;28;20073;-73
2023/08/17 07:40:52;;;;;;;1.25;0.90;;;;;;;28.64;40.23;102161.63;5089620;28;20031;-73
2023/08/17 07:43:17;;;;;;;1.30;0.77;;;;;;;27.51;42.49;102166.00;5091897;28;20024;-73
2023/08/17 07:45:42;;;;;;;5.22;1.10;;;;;;;27.35;42.91;102168.72;5090885;28;20053;-73
2023/08/17 07:48:08;;;;;;;1.48;1.10;;;;;;;27.57;42.57;102171.88;5092673;28;20127;-73
2023/08/17 07:50:33;;;;;;;2.95;1.08;;;;;;;27.93;43.05;102167.84;5087783;28;20160;-72
2023/08/17 07:52:59;;;;;;;3.25;1.00;;;;;;;29.45;39.84;102166.03;5080389;28;20107;-73
2023/08/17 07:55:26;;;;;;;2.55;0.70;;;;;;;29.14;40.16;102153.78;5082598;28;20032;-73
2023/08/17 07:57:51;;;;;;;2.45;0.80;;;;;;;29.12;39.44;102151.22;5088247;28;20059;-73
2023/08/17 08:00:17;;;;;;;3.88;1.23;;;;;;;28.97;39.79;102163.03;5087667;28;20415;-73
2023/08/17 08:02:42;;;;;;;1.85;1.00;;;;;;;28.74;40.45;102157.34;5088371;28;20480;-74
2023/08/17 08:05:08;;;;;;;1.95;0.73;;;;;;;28.70;40.83;102161.19;5087841;28;20031;-73
2023/08/17 08:07:33;;;;;;;5.28;1.10;;;;;;;29.78;39.44;102159.25;5085771;28;20514;-73
2023/08/17 08:09:59;;;;;;;1.42;0.77;;;;;;;29.74;38.30;102158.59;5088399;28;20369;-73
2023/08/17 08:12:24;;;;;;;0.85;0.60;;;;;;;30.40;37.50;102168.31;5085895;28;20098;-73
2023/08/17 08:14:51;;;;;;;2.35;0.80;;;;;;;32.54;34.44;102166.19;5070528;28;20100;-73
2023/08/17 08:17:16;;;;;;;0.88;0.73;;;;;;;32.52;33.98;102169.03;5085531;28;20452;-73
2023/08/17 08:19:41;;;;;;;3.58;0.90;;;;;;;32.75;33.03;102166.25;5089553;28;20078;-72
2023/08/17 08:22:07;;;;;;;4.07;0.90;;;;;;;33.30;32.59;102152.59;5092240;28;20020;-73
2023/08/17 08:24:34;;;;;;;4.50;0.95;;;;;;;32.73;33.77;102150.16;5093640;28;20453;-73
2023/08/17 08:27:01;;;;;;;1.45;0.80;;;;;;;33.31;33.26;102147.03;5091974;28;20055;-73
2023/08/17 08:29:27;;;;;;;3.63;0.73;;;;;;;33.00;33.59;102156.91;5094664;28;20050;-74
2023/08/17 08:31:53;;;;;;;1.70;0.63;;;;;;;32.94;33.02;102146.63;5091603;28;20821;-73
2023/08/17 08:34:18;;;;;;;2.42;0.98;;;;;;;33.54;32.52;102137.88;5092364;28;20032;-73
2023/08/17 08:36:44;;;;;;;1.77;0.80;;;;;;;32.73;33.34;102138.47;5091513;28;20039;-73
2023/08/17 08:39:10;;;;;;;2.15;1.25;;;;;;;31.18;36.20;102131.91;5092289;28;20561;-73
2023/08/17 08:41:37;;;;;;;1.35;0.95;;;;;;;32.29;34.54;102141.19;5091690;28;20059;-73
2023/08/17 08:44:03;;;;;;;6.80;0.98;;;;;;;32.79;33.52;102146.06;5076767;28;20036;-73
2023/08/17 08:46:30;;;;;;;1.35;0.75;;;;;;;33.39;33.40;102137.41;5079411;28;20046;-72
2023/08/17 08:48:56;;;;;;;3.33;0.80;;;;;;;31.61;34.84;102130.38;5093610;28;20020;-74
2023/08/17 08:51:28;;;;;;;1.38;0.70;;;;;;;33.07;33.07;102124.75;5093208;28;20038;-73
2023/08/17 08:54:08;;;;;;;1.48;0.52;;;;;;;33.49;32.54;102130.16;5091353;28;20566;-73
2023/08/17 08:56:37;;;;;;;1.55;1.23;;;;;;;33.17;32.79;102120.28;5087834;28;20039;-75
2023/08/17 08:59:04;;;;;;;2.45;1.02;;;;;;;34.03;31.83;102129.97;5089797;28;20066;-73
2023/08/17 09:01:33;;;;;;;3.13;1.02;;;;;;;33.79;31.71;102131.19;5092603;28;20040;-73
2023/08/17 09:04:02;;;;;;;2.83;1.17;;;;;;;33.39;32.32;102132.81;5077673;28;20051;-73
2023/08/17 09:06:30;;;;;;;1.58;1.02;;;;;;;33.87;31.81;102128.63;5076198;28;20437;-73
2023/08/17 09:08:57;;;;;;;7.85;0.60;;;;;;;33.14;31.77;102123.25;5090752;28;20562;-74
2023/08/17 09:11:23;;;;;;;1.60;0.70;;;;;;;32.64;32.76;102122.00;5082380;28;20098;-73
2023/08/17 09:13:48;;;;;;;2.33;0.77;;;;;;;34.60;30.87;102125.63;5087261;28;20028;-73
2023/08/17 09:16:14;;;;;;;2.03;1.02;;;;;;;34.05;30.77;102114.44;5091595;28;20121;-73
2023/08/17 09:18:40;;;;;;;4.82;0.90;;;;;;;34.52;31.02;102113.78;5091808;28;20093;-74
2023/08/17 09:21:05;;;;;;;1.25;0.80;;;;;;;34.11;30.92;102113.84;5085805;28;20470;-73
2023/08/17 09:23:31;;;;;;;3.15;0.75;;;;;;;33.33;31.57;102116.25;5089584;28;20536;-73
2023/08/17 09:25:59;;;;;;;3.22;0.80;;;;;;;33.49;32.11;102113.91;5082058;28;20028;-73
2023/08/17 09:28:25;;;;;;;4.38;0.82;;;;;;;31.78;34.25;102120.94;5085497;28;20490;-73
2023/08/17 09:30:52;;;;;;;4.28;0.88;;;;;;;31.81;35.06;102120.69;5083582;28;20032;-73
2023/08/17 09:33:18;;;;;;;0.93;0.73;;;;;;;31.55;34.79;102110.09;5090611;28;20082;-73
2023/08/17 09:35:44;;;;;;;7.25;1.15;;;;;;;31.06;35.70;102109.41;5090966;28;20024;-73
2023/08/17 09:38:09;;;;;;;5.95;1.17;;;;;;;31.10;35.83;102110.03;5091345;28;20042;-73
2023/08/17 09:40:35;;;;;;;3.15;0.80;;;;;;;30.88;36.39;102108.97;5091810;28;20043;-72
2023/08/17 09:43:02;;;;;;;3.33;1.25;;;;;;;30.77;37.23;102114.31;5089477;28;20027;-71
2023/08/17 09:45:28;;;;;;;4.40;1.08;;;;;;;31.36;35.86;102109.84;5091001;28;20391;-72
2023/08/17 09:47:54;;;;;;;2.85;1.38;;;;;;;32.60;34.28;102101.59;5091333;28;20024;-73
2023/08/17 09:50:23;;;;;;;2.15;0.98;;;;;;;31.86;34.82;102102.28;5089739;28;20038;-72
2023/08/17 09:52:53;;;;;;;4.50;1.10;;;;;;;30.47;37.38;102096.78;5091001;28;20071;-72
2023/08/17 09:55:19;;;;;;;2.08;1.15;;;;;;;29.81;38.13;102101.59;5089250;28;20533;-73
2023/08/17 09:57:47;;;;;;;4.00;1.30;;;;;;;30.08;38.63;102096.91;5087129;28;20552;-73
2023/08/17 10:00:13;;;;;;;5.88;1.85;;;;;;;30.01;38.19;102089.41;5053727;28;20564;-72
2023/08/17 10:02:38;;;;;;;4.30;1.73;;;;;;;30.87;36.74;102088.38;5044468;28;20063;-72
2023/08/17 10:05:05;;;;;;;1.98;0.90;;;;;;;31.22;37.11;102087.47;5050598;28;20066;-72
2023/08/17 10:07:33;;;;;;;3.85;1.13;;;;;;;30.83;36.72;102092.28;5051159;28;20125;-73
2023/08/17 10:10:04;;;;;;;1.95;1.23;;;;;;;31.10;37.58;102083.88;5043431;28;20032;-73
2023/08/17 10:12:36;;;;;;;3.15;1.23;;;;;;;30.31;38.77;102085.38;5071086;28;20074;-73
2023/08/17 10:15:10;;;;;;;3.05;1.02;;;;;;;31.99;36.03;102079.63;5047007;28;20083;-73
2023/08/17 10:17:51;;;;;;;3.10;1.23;;;;;;;31.69;36.83;102089.25;5049218;28;20058;-72
2023/08/17 10:20:19;;;;;;;2.20;0.95;;;;;;;31.46;36.50;102076.59;5054280;28;20020;-73
2023/08/17 10:23:23;;;;;;;2.45;1.00;;;;;;;30.05;39.05;102080.13;5053191;28;20044;-73
2023/08/17 10:25:50;;;;;;;2.13;1.15;;;;;;;31.59;37.36;102073.78;5051570;28;20533;-73
2023/08/17 10:28:16;;;;;;;3.28;1.00;;;;;;;30.99;37.05;102064.09;5039708;28;20028;-72
2023/08/17 10:30:42;;;;;;;4.95;0.90;;;;;;;30.63;37.78;102070.38;5069969;28;20033;-73
2023/08/17 10:33:09;;;;;;;1.85;1.00;;;;;;;31.39;37.34;102060.97;5052699;28;20546;-72
2023/08/17 10:35:40;;;;;;;5.10;1.63;;;;;;;32.09;36.00;102059.81;5069376;28;20031;-73
2023/08/17 10:38:06;;;;;;;2.90;1.55;;;;;;;31.57;36.25;102073.03;5069975;28;20038;-73
2023/08/17 10:40:37;;;;;;;5.40;1.13;;;;;;;31.83;36.34;102061.09;5052929;28;20127;-72
2023/08/17 10:43:03;;;;;;;6.93;1.92;;;;;;;31.62;36.29;102073.53;5052901;28;20559;-72
2023/08/17 10:45:29;;;;;;;3.17;1.52;;;;;;;31.71;36.58;102076.47;5049154;28;20125;-73
2023/08/17 10:48:07;;;;;;;2.92;1.35;;;;;;;31.44;36.56;102081.22;5049262;28;20633;-72
2023/08/17 10:50:35;;;;;;;3.95;1.17;;;;;;;31.00;36.88;102082.88;5038477;28;20059;-73
2023/08/17 10:53:08;;;;;;;5.53;1.48;;;;;;;31.34;36.21;102079.38;5037777;28;20404;-72
2023/08/17 10:55:48;;;;;;;2.60;1.10;;;;;;;30.67;37.86;102075.56;5052346;28;20134;-73
2023/08/17 10:58:14;;;;;;;3.17;0.98;;;;;;;31.07;37.00;102069.78;5062366;28;20043;-72
2023/08/17 11:00:42;;;;;;;2.97;0.80;;;;;;;31.91;36.21;102073.00;5089686;28;20024;-72
2023/08/17 11:03:10;;;;;;;2.42;0.93;;;;;;;33.07;34.94;102076.00;5091423;28;20024;-72
2023/08/17 11:05:42;;;;;;;3.95;1.27;;;;;;;32.32;35.35;102065.19;5089402;28;20024;-70
2023/08/17 11:08:22;;;;;;;4.10;0.90;;;;;;;31.40;36.49;102063.56;5090552;28;20042;-72
2023/08/17 11:11:02;;;;;;;1.85;0.93;;;;;;;31.44;37.22;102065.03;5086286;28;20117;-72
2023/08/17 11:13:29;;;;;;;2.45;1.40;;;;;;;31.27;36.96;102058.28;5089044;28;20119;-72
2023/08/17 11:15:54;;;;;;;4.03;1.05;;;;;;;31.82;36.24;102057.56;5090373;28;20020;-72
2023/08/17 11:18:20;;;;;;;0.95;0.95;;;;;;;32.08;36.39;102058.09;5090119;28;20105;-72
2023/08/17 11:20:48;;;;;;;2.95;1.02;;;;;;;30.77;37.11;102054.97;5088468;28;20039;-72